Time;durP1;ratioP1;P1;durP2;ratioP2;P2;SDS_P1;SDS_P2;PMS_P1;PMS_P2;Temp;Humidity;BMP_temperature;BMP_pressure;BME280_temperature;BME280_humidity;BME280_pressure;Samples;Min_cycle;Max_cycle;Signal;HPM_P1;HPM_P2
2021/11/06 00:00:03;;;;;;;44.67;29.60;;;;;;;22.35;73.21;101083.28;1638249;87;22484;-69
2021/11/06 00:02:32;;;;;;;42.77;31.43;;;;;;;22.16;76.91;101079.22;1636525;87;21066;-69
2021/11/06 00:04:58;;;;;;;52.17;35.83;;;;;;;22.15;78.34;101078.41;1662242;84;21018;-69
2021/11/06 00:07:24;;;;;;;50.57;36.13;;;;;;;22.12;78.84;101073.55;1663371;86;20935;-69
2021/11/06 00:09:51;;;;;;;54.07;35.20;;;;;;;22.18;79.62;101070.50;1658181;86;21555;-69
2021/11/06 00:12:17;;;;;;;47.57;31.57;;;;;;;22.65;75.07;101072.30;1663441;85;21149;-69
2021/11/06 00:14:44;;;;;;;43.97;32.37;;;;;;;22.14;79.22;101070.70;1662282;85;20962;-69
2021/11/06 00:17:10;;;;;;;53.30;36.33;;;;;;;22.40;75.67;101079.37;1662917;85;21111;-69
2021/11/06 00:19:37;;;;;;;50.40;34.03;;;;;;;22.40;74.97;101082.55;1663552;86;22255;-68
2021/11/06 00:22:05;;;;;;;52.63;34.47;;;;;;;22.46;75.18;101085.02;1663058;86;20978;-69
2021/11/06 00:24:32;;;;;;;49.50;34.23;;;;;;;22.12;77.57;101081.52;1663381;84;21217;-69
2021/11/06 00:26:58;;;;;;;54.60;34.30;;;;;;;22.07;79.14;101086.22;1662444;84;21059;-69
2021/11/06 00:29:24;;;;;;;57.37;36.07;;;;;;;22.10;79.74;101083.09;1663084;85;21166;-68
2021/11/06 00:31:51;;;;;;;52.37;36.03;;;;;;;22.31;77.02;101076.81;1663017;85;21063;-69
2021/11/06 00:34:17;;;;;;;47.33;33.13;;;;;;;22.34;76.15;101073.68;1663598;85;21537;-69
2021/11/06 00:36:44;;;;;;;50.03;33.43;;;;;;;22.53;73.87;101080.89;1662607;85;21208;-69
2021/11/06 00:39:11;;;;;;;50.30;34.03;;;;;;;22.45;73.31;101076.78;1663108;86;21101;-69
2021/11/06 00:41:38;;;;;;;44.30;32.10;;;;;;;22.20;76.21;101072.38;1663410;86;21050;-69
2021/11/06 00:44:05;;;;;;;47.53;34.27;;;;;;;22.50;73.74;101068.91;1662915;84;21168;-69
2021/11/06 00:46:31;;;;;;;50.77;34.77;;;;;;;22.07;77.95;101078.25;1663528;85;21078;-69
2021/11/06 00:48:58;;;;;;;44.87;32.03;;;;;;;22.24;76.77;101082.83;1662841;86;21161;-69
2021/11/06 00:51:24;;;;;;;49.67;34.43;;;;;;;21.95;79.19;101068.75;1662747;85;21057;-69
2021/11/06 00:53:51;;;;;;;50.47;32.33;;;;;;;22.05;78.05;101073.72;1663041;85;21082;-69
2021/11/06 00:56:17;;;;;;;46.30;33.53;;;;;;;22.03;78.04;101067.83;1663599;85;21517;-69
2021/11/06 00:58:46;;;;;;;52.30;37.00;;;;;;;22.47;74.13;101069.92;1662914;86;21484;-68
2021/11/06 01:01:13;;;;;;;50.17;33.97;;;;;;;22.65;71.42;101064.84;1662438;85;21149;-69
2021/11/06 01:03:39;;;;;;;47.50;31.67;;;;;;;22.57;69.68;101056.77;1664305;85;22202;-69
2021/11/06 01:06:05;;;;;;;43.63;30.80;;;;;;;22.18;74.91;101059.35;1666186;85;20989;-69
2021/11/06 01:08:34;;;;;;;52.80;34.03;;;;;;;21.82;77.88;101048.59;1665785;85;21048;-69
2021/11/06 01:11:00;;;;;;;43.73;31.20;;;;;;;21.86;78.93;101051.88;1665298;84;21055;-69
2021/11/06 01:13:28;;;;;;;48.63;33.63;;;;;;;21.70;81.20;101049.17;1665000;85;21160;-69
2021/11/06 01:15:54;;;;;;;51.83;34.77;;;;;;;21.64;83.18;101052.80;1665243;84;21034;-69
2021/11/06 01:18:21;;;;;;;51.83;33.47;;;;;;;21.62;83.76;101056.47;1666473;84;20981;-68
2021/11/06 01:20:48;;;;;;;48.40;34.63;;;;;;;21.73;83.23;101054.02;1664451;85;20910;-69
2021/11/06 01:23:14;;;;;;;51.50;35.27;;;;;;;21.13;90.34;101052.54;1665776;85;21112;-69
2021/11/06 01:25:40;;;;;;;52.83;36.10;;;;;;;20.87;95.09;101064.44;1665414;86;21119;-69
2021/11/06 01:28:07;;;;;;;49.30;35.33;;;;;;;21.04;94.81;101061.38;1681132;85;21496;-69
2021/11/06 01:30:34;;;;;;;53.47;34.13;;;;;;;20.93;96.57;101060.87;1637696;86;21003;-69
2021/11/06 01:33:00;;;;;;;54.67;35.77;;;;;;;21.20;92.54;101055.88;1671835;85;21138;-68
2021/11/06 01:35:26;;;;;;;53.17;34.47;;;;;;;20.80;96.24;101069.08;1665139;85;21001;-69
2021/11/06 01:37:54;;;;;;;61.70;34.07;;;;;;;20.87;95.17;101069.24;1665124;86;21173;-69
2021/11/06 01:40:21;;;;;;;53.97;34.60;;;;;;;20.89;94.56;101062.38;1666281;85;21058;-68
2021/11/06 01:42:48;;;;;;;47.50;31.77;;;;;;;20.99;93.13;101061.28;1665677;85;21520;-69
2021/11/06 01:45:17;;;;;;;53.27;35.33;;;;;;;21.16;90.96;101069.84;1665898;85;21032;-69
2021/11/06 01:47:43;;;;;;;54.17;34.57;;;;;;;20.83;97.01;101071.23;1665918;85;21621;-69
2021/11/06 01:50:10;;;;;;;55.27;35.17;;;;;;;20.83;97.01;101071.23;1666255;86;21155;-69
2021/11/06 01:52:37;;;;;;;53.90;34.07;;;;;;;21.00;94.51;101064.21;1666221;86;20855;-69
2021/11/06 01:55:05;;;;;;;51.50;35.50;;;;;;;20.60;97.80;101066.22;1665415;86;20958;-68
2021/11/06 01:57:33;;;;;;;54.90;35.10;;;;;;;21.03;95.11;101066.92;1665278;85;21480;-69
2021/11/06 02:00:00;;;;;;;56.77;36.97;;;;;;;20.98;95.49;101072.90;1666450;86;21138;-69
2021/11/06 02:02:26;;;;;;;53.33;33.67;;;;;;;21.18;90.82;101071.75;1666259;85;21161;-69
2021/11/06 02:04:53;;;;;;;56.43;35.03;;;;;;;20.94;93.37;101074.41;1676113;84;21006;-67
2021/11/06 02:07:20;;;;;;;52.70;33.60;;;;;;;21.11;90.83;101065.23;1682337;83;21098;-68
2021/11/06 02:09:46;;;;;;;57.00;34.80;;;;;;;21.19;90.32;101068.05;1681881;85;21148;-68
2021/11/06 02:12:13;;;;;;;58.03;35.50;;;;;;;21.42;88.31;101069.34;1684351;85;20971;-66
2021/11/06 02:14:40;;;;;;;52.63;33.37;;;;;;;21.31;89.07;101070.95;1663024;86;21184;-68
2021/11/06 02:17:06;;;;;;;52.60;35.00;;;;;;;21.37;89.31;101067.93;1682763;85;21639;-67
2021/11/06 02:19:33;;;;;;;53.57;33.47;;;;;;;21.53;86.70;101061.08;1683639;85;20960;-67
2021/11/06 02:22:00;;;;;;;52.70;34.73;;;;;;;21.67;83.48;101062.91;1684195;84;21097;-67
2021/11/06 02:24:28;;;;;;;55.07;35.97;;;;;;;21.79;82.00;101065.02;1663580;86;20935;-67
2021/11/06 02:26:55;;;;;;;57.03;35.93;;;;;;;21.58;84.39;101079.73;1662833;86;21164;-67
2021/11/06 02:29:22;;;;;;;55.67;35.80;;;;;;;21.56;84.59;101076.53;1678013;85;20991;-67
2021/11/06 02:31:50;;;;;;;50.97;32.57;;;;;;;21.57;82.91;101072.30;1676689;85;21780;-66
2021/11/06 02:34:16;;;;;;;53.33;34.27;;;;;;;21.58;82.82;101067.27;1677541;85;21098;-66
2021/11/06 02:36:43;;;;;;;56.50;36.37;;;;;;;21.68;80.87;101061.89;1677167;85;21114;-67
2021/11/06 02:39:10;;;;;;;51.27;36.03;;;;;;;21.19;87.89;101056.12;1678015;85;21134;-67
2021/11/06 02:41:38;;;;;;;56.87;37.10;;;;;;;21.41;85.96;101057.14;1677525;85;20980;-67
2021/11/06 02:44:09;;;;;;;59.27;39.70;;;;;;;21.52;85.01;101052.31;1677141;85;21686;-67
2021/11/06 02:46:37;;;;;;;61.83;38.63;;;;;;;21.44;86.97;101054.02;1676597;85;20955;-66
2021/11/06 02:49:06;;;;;;;56.27;36.30;;;;;;;21.29;89.81;101045.70;1677170;85;20960;-66
2021/11/06 02:51:33;;;;;;;62.67;36.97;;;;;;;21.36;88.40;101055.16;1660100;85;21170;-67
2021/11/06 02:53:59;;;;;;;54.87;35.87;;;;;;;21.28;86.92;101044.09;1676588;85;21701;-67
2021/11/06 02:56:28;;;;;;;64.33;37.67;;;;;;;21.17;88.42;101044.41;1677346;85;21105;-67
2021/11/06 02:58:55;;;;;;;61.43;37.43;;;;;;;20.71;93.90;101050.05;1677304;85;21588;-66
2021/11/06 03:01:22;;;;;;;62.53;36.90;;;;;;;20.64;94.58;101050.67;1677811;85;21528;-66
2021/11/06 03:03:48;;;;;;;58.10;36.97;;;;;;;20.29;99.20;101051.95;1676924;84;21147;-68
2021/11/06 03:06:15;;;;;;;64.57;37.27;;;;;;;20.08;100.00;101048.80;1677361;85;21120;-68
2021/11/06 03:08:42;;;;;;;66.63;38.17;;;;;;;20.28;100.00;101049.02;1675585;85;21698;-66
2021/11/06 03:11:09;;;;;;;71.57;40.47;;;;;;;20.04;100.00;101052.94;1667125;85;21110;-66
2021/11/06 03:13:36;;;;;;;61.37;35.73;;;;;;;20.19;100.00;101049.84;1672085;85;21544;-67
2021/11/06 03:16:06;;;;;;;59.67;35.87;;;;;;;19.98;100.00;101045.09;1676427;85;21556;-66
2021/11/06 03:18:32;;;;;;;62.83;36.57;;;;;;;19.86;100.00;101040.56;1647267;85;21510;-67
2021/11/06 03:20:59;;;;;;;66.80;37.27;;;;;;;19.83;100.00;101029.63;1676405;85;21142;-66
2021/11/06 03:23:27;;;;;;;64.57;37.73;;;;;;;20.10;100.00;101030.84;1677052;85;21723;-67
2021/11/06 03:25:57;;;;;;;66.67;36.43;;;;;;;20.62;99.46;101032.38;1675448;85;21051;-66
2021/11/06 03:28:25;;;;;;;55.50;35.17;;;;;;;20.98;94.38;101030.49;1676845;85;21145;-69
2021/11/06 03:30:51;;;;;;;66.77;37.27;;;;;;;21.12;92.50;101025.75;1676390;85;21456;-65
2021/11/06 03:33:18;;;;;;;58.53;34.93;;;;;;;21.23;89.07;101028.89;1677332;85;20972;-66
2021/11/06 03:35:44;;;;;;;54.50;32.37;;;;;;;21.29;87.72;101029.78;1675928;85;21768;-66
2021/11/06 03:38:11;;;;;;;56.60;33.07;;;;;;;21.29;86.12;101025.81;1677837;85;21023;-65
2021/11/06 03:40:38;;;;;;;50.80;31.70;;;;;;;21.02;87.81;101026.86;1676182;85;21274;-66
2021/11/06 03:43:05;;;;;;;51.40;31.77;;;;;;;20.76;91.34;101025.50;1675881;85;21081;-66
2021/11/06 03:45:32;;;;;;;47.63;31.23;;;;;;;20.76;91.39;101017.55;1676151;85;20951;-66
2021/11/06 03:47:58;;;;;;;50.60;31.87;;;;;;;20.72;92.50;101019.89;1676446;85;21106;-66
2021/11/06 03:50:25;;;;;;;51.33;31.03;;;;;;;20.72;92.50;101019.89;1676351;85;21402;-68
2021/11/06 03:52:51;;;;;;;52.90;30.33;;;;;;;20.48;94.70;101026.98;1675921;85;21668;-66
2021/11/06 03:55:17;;;;;;;56.93;32.17;;;;;;;20.48;94.58;101019.03;1676666;85;22196;-66
2021/11/06 03:57:45;;;;;;;58.27;33.57;;;;;;;20.62;94.42;101003.23;1675389;85;21043;-69
2021/11/06 04:00:16;;;;;;;52.93;31.90;;;;;;;20.62;94.42;101003.23;1679545;81;20986;-65
2021/11/06 04:02:43;;;;;;;56.18;32.93;;;;;;;20.65;92.99;101009.92;1765893;79;21684;-67
2021/11/06 04:05:10;;;;;;;53.87;31.63;;;;;;;20.74;92.40;101000.58;1754443;81;21134;-66
2021/11/06 04:07:37;;;;;;;56.77;33.57;;;;;;;20.90;90.57;100995.88;1766636;81;21617;-67
2021/11/06 04:10:05;;;;;;;57.03;34.50;;;;;;;20.93;89.58;100996.46;1767054;81;21796;-66
2021/11/06 04:12:32;;;;;;;58.33;33.70;;;;;;;20.70;91.43;101000.75;1766075;81;21603;-67
2021/11/06 04:14:58;;;;;;;57.63;32.03;;;;;;;20.61;93.43;100999.50;1767215;81;21518;-66
2021/11/06 04:17:25;;;;;;;54.00;33.80;;;;;;;20.88;89.89;100994.52;1766984;81;22231;-66
2021/11/06 04:19:52;;;;;;;61.57;34.50;;;;;;;20.84;90.57;100997.34;1766692;81;21768;-68
2021/11/06 04:22:18;;;;;;;54.77;32.67;;;;;;;20.68;92.50;100996.19;1767030;81;21609;-66
2021/11/06 04:24:44;;;;;;;62.67;34.80;;;;;;;20.57;94.14;100994.36;1766243;81;22147;-68
2021/11/06 04:27:11;;;;;;;65.27;36.40;;;;;;;20.49;95.84;101001.30;1767209;81;21456;-68
2021/11/06 04:29:38;;;;;;;63.57;35.20;;;;;;;20.54;96.46;100997.48;1767097;81;21712;-65
2021/11/06 04:32:05;;;;;;;69.80;35.23;;;;;;;20.50;96.34;101002.96;1765989;81;21669;-69
2021/11/06 04:34:33;;;;;;;58.90;34.00;;;;;;;20.64;95.85;101005.12;1767129;81;21683;-66
2021/11/06 04:37:00;;;;;;;61.70;35.67;;;;;;;20.62;95.85;101003.23;1766402;81;21630;-66
2021/11/06 04:39:26;;;;;;;64.33;36.43;;;;;;;20.58;97.27;101007.38;1767045;81;22084;-66
2021/11/06 04:41:52;;;;;;;65.80;38.03;;;;;;;20.37;100.00;101011.89;1766936;81;21754;-68
2021/11/06 04:44:19;;;;;;;70.13;39.37;;;;;;;21.25;89.76;100998.16;1766406;81;21648;-66
2021/11/06 04:46:46;;;;;;;59.67;35.40;;;;;;;21.09;91.16;100999.18;1767013;81;22190;-68
2021/11/06 04:49:12;;;;;;;64.40;37.57;;;;;;;21.09;91.16;100999.18;1766529;81;21017;-66
2021/11/06 04:51:39;;;;;;;73.17;39.20;;;;;;;21.13;90.88;100998.99;1767173;81;21741;-65
2021/11/06 04:54:05;;;;;;;65.33;37.40;;;;;;;21.18;90.43;100997.52;1766794;81;21676;-68
2021/11/06 04:56:32;;;;;;;56.47;32.77;;;;;;;21.35;86.44;100996.54;1766534;81;22216;-66
2021/11/06 04:58:58;;;;;;;62.43;35.93;;;;;;;21.41;83.16;101009.39;1767119;81;21792;-68
2021/11/06 05:01:25;;;;;;;54.43;33.27;;;;;;;21.83;77.19;101013.06;1759531;80;21716;-68
2021/11/06 05:03:52;;;;;;;55.27;31.73;;;;;;;21.31;82.27;101014.46;1746458;82;21650;-67
2021/11/06 05:06:19;;;;;;;54.70;31.93;;;;;;;21.43;82.07;101008.62;1740355;82;21156;-67
2021/11/06 05:08:46;;;;;;;53.73;30.60;;;;;;;21.24;82.43;101012.47;1740843;82;21763;-65
2021/11/06 05:11:12;;;;;;;49.37;30.97;;;;;;;21.24;82.43;101012.47;1740564;82;21074;-68
2021/11/06 05:13:39;;;;;;;52.97;32.87;;;;;;;21.13;84.38;101008.80;1740787;82;21615;-67
2021/11/06 05:16:05;;;;;;;45.73;29.33;;;;;;;21.13;84.38;101008.80;1723619;82;21046;-69
2021/11/06 05:18:32;;;;;;;52.90;32.30;;;;;;;21.14;83.77;100947.61;1756005;81;22156;-67
2021/11/06 05:20:59;;;;;;;53.27;30.80;;;;;;;21.49;81.40;101001.58;1756196;81;21512;-66
2021/11/06 05:23:25;;;;;;;52.73;30.17;;;;;;;21.53;80.65;100996.88;1755285;81;21737;-66
2021/11/06 05:25:52;;;;;;;48.30;31.17;;;;;;;21.44;81.03;100998.31;1756445;81;22992;-67
2021/11/06 05:28:18;;;;;;;52.33;30.07;;;;;;;21.75;78.33;100996.21;1756063;81;21683;-66
2021/11/06 05:30:45;;;;;;;53.90;31.20;;;;;;;21.67;78.02;100996.58;1756342;81;21625;-66
2021/11/06 05:33:13;;;;;;;50.77;31.93;;;;;;;21.48;80.10;100996.80;1756549;81;21630;-66
2021/11/06 05:35:40;;;;;;;49.03;30.13;;;;;;;21.56;81.67;101000.92;1755806;81;21693;-67
2021/11/06 05:38:08;;;;;;;44.53;27.80;;;;;;;21.25;81.59;100998.98;1755167;80;21682;-67
2021/11/06 05:40:35;;;;;;;44.73;29.20;;;;;;;21.53;80.45;100994.23;1756333;81;23020;-67
2021/11/06 05:43:01;;;;;;;45.10;28.60;;;;;;;21.56;79.75;101003.05;1756195;81;21129;-67
2021/11/06 05:45:28;;;;;;;42.43;27.20;;;;;;;21.57;78.85;100998.02;1723581;83;20990;-69
2021/11/06 05:47:55;;;;;;;43.27;27.10;;;;;;;21.66;76.37;101006.39;1751038;81;22053;-68
2021/11/06 05:50:21;;;;;;;45.40;27.20;;;;;;;21.59;77.52;100998.59;1756381;81;22203;-66
2021/11/06 05:52:47;;;;;;;45.30;29.23;;;;;;;21.59;77.52;100998.59;1756520;81;21025;-68
2021/11/06 05:55:15;;;;;;;43.43;27.20;;;;;;;21.75;76.31;101006.83;1756451;81;21669;-67
2021/11/06 05:57:42;;;;;;;44.93;28.03;;;;;;;21.86;75.72;101012.07;1755730;81;21598;-66
2021/11/06 06:00:13;;;;;;;43.50;27.70;;;;;;;21.86;75.72;101012.07;1743649;81;21010;-68
2021/11/06 06:02:40;;;;;;;45.28;28.27;;;;;;;21.93;74.95;101021.71;1732626;82;22029;-66
2021/11/06 06:05:08;;;;;;;40.23;25.73;;;;;;;21.78;77.06;101017.77;1766583;81;21511;-68
2021/11/06 06:07:36;;;;;;;46.03;28.73;;;;;;;22.24;72.46;101022.55;1766679;81;21668;-66
2021/11/06 06:10:04;;;;;;;46.67;29.30;;;;;;;;;;1766763;80;21001;-68
2021/11/06 06:12:31;;;;;;;43.70;28.33;;;;;;;22.02;79.26;101025.08;1766866;81;21768;-68
2021/11/06 06:14:58;;;;;;;47.30;28.23;;;;;;;22.08;77.33;101020.11;1767244;80;21005;-68
2021/11/06 06:17:25;;;;;;;45.20;27.20;;;;;;;22.21;71.54;101020.37;1766770;80;20989;-67
2021/11/06 06:19:51;;;;;;;45.43;27.70;;;;;;;21.77;74.42;101020.12;1767088;80;21676;-68
2021/11/06 06:22:22;;;;;;;38.13;24.37;;;;;;;21.74;75.19;101021.12;1766360;81;20898;-68
2021/11/06 06:24:48;;;;;;;38.03;24.23;;;;;;;21.74;73.22;101023.24;1766934;81;21061;-68
2021/11/06 06:27:15;;;;;;;39.37;25.23;;;;;;;21.83;72.49;101021.03;1766777;81;21782;-69
2021/11/06 06:29:42;;;;;;;33.33;23.30;;;;;;;22.07;70.24;101033.11;1766620;80;21045;-69
2021/11/06 06:32:09;;;;;;;41.80;26.10;;;;;;;21.75;72.74;101037.34;1755553;80;21164;-69
2021/11/06 06:34:37;;;;;;;37.37;24.33;;;;;;;21.86;72.31;101035.95;1767017;80;20887;-68
2021/11/06 06:37:04;;;;;;;34.60;23.53;;;;;;;21.98;70.75;100991.29;1767133;81;21141;-68
2021/11/06 06:39:30;;;;;;;37.43;24.53;;;;;;;22.23;68.44;101031.53;1766824;80;21563;-70
2021/11/06 06:41:58;;;;;;;36.70;24.47;;;;;;;22.59;65.25;101032.89;1767720;80;21064;-68
2021/11/06 06:44:25;;;;;;;41.23;26.23;;;;;;;22.75;63.59;101029.13;1745476;81;21146;-68
2021/11/06 06:46:51;;;;;;;37.73;24.50;;;;;;;22.34;65.70;101032.51;1767040;80;20930;-68
2021/11/06 06:49:18;;;;;;;35.43;22.67;;;;;;;22.41;66.18;101027.84;1767606;80;20999;-68
2021/11/06 06:51:45;;;;;;;41.30;26.30;;;;;;;22.43;65.36;101029.74;1766590;80;20931;-68
2021/11/06 06:54:11;;;;;;;39.53;27.37;;;;;;;23.13;60.71;101020.34;1762212;80;21096;-69
2021/11/06 06:56:38;;;;;;;44.33;28.23;;;;;;;23.26;60.04;101019.98;1754398;81;21219;-68
2021/11/06 06:59:04;;;;;;;42.80;26.43;;;;;;;23.53;58.60;101004.03;1767280;80;21631;-69
2021/11/06 07:01:32;;;;;;;43.60;26.87;;;;;;;23.54;57.58;101003.50;1767269;80;21689;-68
2021/11/06 07:03:58;;;;;;;43.63;27.87;;;;;;;23.60;57.06;101002.51;1761698;80;21006;-68
2021/11/06 07:06:25;;;;;;;47.43;28.87;;;;;;;23.63;56.87;100994.53;1766995;81;21085;-69
2021/11/06 07:08:51;;;;;;;46.77;30.20;;;;;;;23.77;56.73;100999.76;1766386;80;21563;-69
2021/11/06 07:11:18;;;;;;;46.37;27.67;;;;;;;23.91;55.27;100998.30;1767245;80;20953;-68
2021/11/06 07:13:47;;;;;;;42.53;26.83;;;;;;;23.69;55.92;100989.57;1767222;80;22191;-69
2021/11/06 07:16:14;;;;;;;40.20;27.27;;;;;;;23.83;55.10;100978.80;1766639;80;20976;-70
2021/11/06 07:18:42;;;;;;;49.03;29.00;;;;;;;24.10;53.92;100970.74;1767031;80;21549;-70
2021/11/06 07:21:08;;;;;;;43.33;27.93;;;;;;;24.30;53.12;100967.94;1755300;80;21139;-69
2021/11/06 07:23:36;;;;;;;42.23;29.40;;;;;;;24.14;52.90;100967.04;1767145;80;20946;-67
2021/11/06 07:26:03;;;;;;;41.80;27.30;;;;;;;24.30;52.17;100968.73;1766736;80;21016;-69
2021/11/06 07:28:31;;;;;;;43.13;27.73;;;;;;;23.65;54.21;100968.48;1767277;80;20985;-66
2021/11/06 07:30:59;;;;;;;42.63;28.27;;;;;;;23.84;54.21;100959.63;1766853;80;20979;-69
2021/11/06 07:33:26;;;;;;;42.13;28.33;;;;;;;23.87;53.65;100959.12;1766992;81;21801;-68
2021/11/06 07:35:52;;;;;;;38.87;26.80;;;;;;;23.77;53.85;100951.84;1766864;80;21057;-69
2021/11/06 07:38:19;;;;;;;43.10;27.23;;;;;;;23.66;54.50;100994.03;1766500;81;21046;-68
2021/11/06 07:40:45;;;;;;;47.43;28.73;;;;;;;23.44;55.70;100960.28;1766408;80;21113;-69
2021/11/06 07:43:12;;;;;;;46.70;29.13;;;;;;;23.73;54.53;100962.19;1755575;81;21132;-68
2021/11/06 07:45:40;;;;;;;48.13;30.73;;;;;;;23.65;55.13;100963.95;1766837;81;21163;-69
2021/11/06 07:48:08;;;;;;;53.83;33.00;;;;;;;23.82;54.11;100964.38;1754405;80;21488;-70
2021/11/06 07:50:34;;;;;;;43.37;29.13;;;;;;;23.86;53.93;100963.61;1767499;80;21459;-69
2021/11/06 07:53:01;;;;;;;44.90;29.40;;;;;;;23.72;53.90;100963.78;1766777;80;21060;-69
2021/11/06 07:55:28;;;;;;;49.47;32.17;;;;;;;24.02;52.95;100967.23;1767167;80;21592;-70
2021/11/06 07:57:54;;;;;;;54.03;30.87;;;;;;;23.91;52.96;100976.98;1766660;80;21213;-69
2021/11/06 08:00:21;;;;;;;49.63;29.53;;;;;;;23.87;53.04;100975.09;1766969;81;20965;-69
2021/11/06 08:02:48;;;;;;;50.80;31.43;;;;;;;23.94;53.14;100965.00;1759813;80;20982;-70
2021/11/06 08:05:17;;;;;;;47.57;29.03;;;;;;;24.00;52.74;100974.12;1753226;81;21532;-69
2021/11/06 08:07:43;;;;;;;51.57;31.97;;;;;;;23.57;54.61;100991.03;1753572;80;21612;-70
2021/11/06 08:10:10;;;;;;;51.27;31.50;;;;;;;23.61;54.78;101001.98;1753219;80;21146;-69
2021/11/06 08:12:38;;;;;;;49.37;32.00;;;;;;;23.57;55.53;100987.04;1753175;81;21544;-69
2021/11/06 08:15:07;;;;;;;53.97;32.87;;;;;;;23.59;55.62;100996.89;1752424;81;21516;-69
2021/11/06 08:17:33;;;;;;;57.57;35.97;;;;;;;23.76;54.00;100986.98;1753266;81;21011;-69
2021/11/06 08:20:00;;;;;;;65.60;36.63;;;;;;;23.83;53.64;100993.94;1752406;81;21434;-70
2021/11/06 08:22:26;;;;;;;57.13;35.83;;;;;;;23.76;54.01;100994.17;1753566;80;21149;-68
2021/11/06 08:24:53;;;;;;;58.47;35.90;;;;;;;24.00;54.03;100992.77;1740714;80;22302;-69
2021/11/06 08:27:19;;;;;;;56.57;34.93;;;;;;;24.15;54.18;100992.61;1753170;81;21156;-68
2021/11/06 08:29:46;;;;;;;55.40;34.17;;;;;;;24.31;54.13;100990.85;1753037;81;21469;-68
2021/11/06 08:32:12;;;;;;;50.83;30.97;;;;;;;24.58;52.66;100990.24;1746177;79;20967;-63
2021/11/06 08:34:39;;;;;;;57.67;35.60;;;;;;;24.31;53.20;100988.98;1749578;81;21170;-69
2021/11/06 08:37:06;;;;;;;51.80;33.17;;;;;;;24.30;52.84;100979.39;1751280;81;20974;-71
2021/11/06 08:39:32;;;;;;;48.67;31.73;;;;;;;24.09;54.41;100988.29;1731677;81;22235;-66
2021/11/06 08:41:59;;;;;;;52.90;33.10;;;;;;;23.87;54.89;100993.20;1752194;81;20987;-68
2021/11/06 08:44:26;;;;;;;45.30;28.73;;;;;;;23.69;55.72;100989.04;1753287;81;21026;-67
2021/11/06 08:46:54;;;;;;;44.90;29.57;;;;;;;23.76;55.27;100981.66;1746615;80;21162;-68
2021/11/06 08:49:22;;;;;;;44.07;29.60;;;;;;;22.79;59.73;100986.38;1752121;81;20990;-69
2021/11/06 08:51:50;;;;;;;37.23;25.47;;;;;;;23.32;58.79;100974.27;1738478;80;21481;-68
2021/11/06 08:54:18;;;;;;;35.47;22.50;;;;;;;23.84;57.42;100967.08;1752913;81;21090;-71
2021/11/06 08:56:45;;;;;;;33.93;24.80;;;;;;;24.17;55.59;100960.67;1754127;80;21054;-70
2021/11/06 08:59:15;;;;;;;32.40;22.37;;;;;;;23.72;56.64;100957.93;1750172;81;21161;-66
2021/11/06 09:02:04;;;;;;;30.47;22.20;;;;;;;24.11;54.83;100950.23;1753336;81;20998;-71
2021/11/06 09:04:31;;;;;;;32.03;22.67;;;;;;;23.44;56.70;100957.62;1694123;84;21116;-67
2021/11/06 09:06:59;;;;;;;31.43;24.20;;;;;;;21.35;68.70;100959.94;1694294;83;20980;-69
2021/11/06 09:09:26;;;;;;;30.77;22.30;;;;;;;20.77;88.39;100959.05;1664207;85;22466;-69
2021/11/06 09:11:54;;;;;;;29.30;22.20;;;;;;;20.22;97.50;100959.91;1669161;84;21106;-70
2021/11/06 09:14:20;;;;;;;27.80;23.00;;;;;;;20.28;99.16;100956.34;1664882;85;21045;-69
2021/11/06 09:16:47;;;;;;;28.73;22.90;;;;;;;20.71;92.71;100968.44;1693253;83;21074;-69
2021/11/06 09:19:14;;;;;;;27.37;22.17;;;;;;;20.18;99.54;100984.19;1693864;84;21102;-71
2021/11/06 09:21:42;;;;;;;27.20;22.77;;;;;;;20.23;100.00;100982.20;1693468;83;21138;-71
2021/11/06 09:24:11;;;;;;;26.33;21.33;;;;;;;20.13;100.00;100981.95;1666813;84;21584;-70
2021/11/06 09:26:43;;;;;;;28.57;24.17;;;;;;;20.10;100.00;100981.88;1664016;85;21087;-70
2021/11/06 09:29:09;;;;;;;30.70;23.43;;;;;;;20.26;100.00;100981.71;1664230;84;21091;-69
2021/11/06 09:31:38;;;;;;;27.80;22.97;;;;;;;20.53;98.93;100970.20;1663863;84;21653;-68
2021/11/06 09:34:07;;;;;;;28.03;22.60;;;;;;;20.66;97.93;100969.14;1664342;84;21198;-70
2021/11/06 09:36:35;;;;;;;26.07;22.90;;;;;;;20.99;94.56;100980.44;1700485;81;21146;-70
2021/11/06 09:39:07;;;;;;;28.50;23.43;;;;;;;21.08;95.85;100969.74;1693628;83;20953;-69
2021/11/06 09:41:34;;;;;;;28.47;21.97;;;;;;;21.27;90.82;100957.64;1665502;84;21147;-73
2021/11/06 09:44:01;;;;;;;30.90;24.30;;;;;;;20.32;98.72;100961.47;1664681;84;21128;-68
2021/11/06 09:46:28;;;;;;;26.97;23.73;;;;;;;19.69;100.00;100958.38;1666589;83;21033;-71
2021/11/06 09:48:54;;;;;;;29.83;23.90;;;;;;;19.66;100.00;100952.23;1664027;84;21123;-69
2021/11/06 09:51:21;;;;;;;27.47;22.80;;;;;;;20.04;100.00;100955.02;1697490;83;20963;-71
2021/11/06 09:53:51;;;;;;;27.20;21.37;;;;;;;19.59;100.00;100953.34;1665404;84;21250;-69
2021/11/06 09:56:21;;;;;;;25.70;21.40;;;;;;;20.35;100.00;100946.45;1696719;83;21062;-69
2021/11/06 09:58:47;;;;;;;30.33;23.53;;;;;;;20.36;100.00;100946.73;1663618;84;21097;-70
2021/11/06 10:01:14;;;;;;;32.13;25.47;;;;;;;20.88;100.00;100924.30;1666443;84;21207;-70
2021/11/06 10:03:41;;;;;;;31.43;26.60;;;;;;;20.69;100.00;100923.64;1661011;84;21004;-68
2021/11/06 10:06:22;;;;;;;27.80;22.43;;;;;;;21.17;96.04;100922.97;1654157;84;21024;-68
2021/11/06 10:08:51;;;;;;;29.00;24.80;;;;;;;21.69;88.64;100932.15;1649654;85;21550;-69
2021/11/06 10:11:29;;;;;;;33.73;28.00;;;;;;;21.71;85.61;100928.75;1655950;84;20921;-68
2021/11/06 10:14:08;;;;;;;35.17;28.27;;;;;;;21.17;93.38;100925.09;1646874;85;21165;-68
2021/11/06 10:16:53;;;;;;;31.37;24.83;;;;;;;21.25;89.42;100921.26;1656514;84;21062;-69
2021/11/06 10:19:31;;;;;;;29.00;24.57;;;;;;;21.24;88.86;100922.31;1659911;85;21154;-67
2021/11/06 10:22:12;;;;;;;33.43;26.30;;;;;;;21.43;87.83;100918.97;1649356;84;21008;-67
2021/11/06 10:24:54;;;;;;;31.40;26.02;;;;;;;21.30;88.91;100912.89;1651389;85;21513;-68
2021/11/06 10:27:31;;;;;;;36.90;26.33;;;;;;;21.58;86.06;100916.05;1639625;85;21149;-68
2021/11/06 10:30:18;;;;;;;36.47;26.33;;;;;;;21.52;85.57;100902.44;1667822;85;20909;-67
2021/11/06 10:33:09;;;;;;;37.70;28.47;;;;;;;21.56;84.75;100898.25;1655541;85;21015;-70
2021/11/06 10:35:52;;;;;;;37.90;28.70;;;;;;;21.68;83.57;100904.81;1665306;85;21051;-70
2021/11/06 10:38:22;;;;;;;32.67;25.67;;;;;;;21.82;81.71;100908.77;1658582;85;21066;-66
2021/11/06 10:40:59;;;;;;;37.07;28.17;;;;;;;22.19;76.79;100894.98;1666173;85;21147;-65
2021/11/06 10:43:27;;;;;;;39.87;29.00;;;;;;;21.96;74.94;100891.97;1632742;86;21043;-66
2021/11/06 10:45:59;;;;;;;32.70;26.13;;;;;;;22.04;75.77;100894.20;1669199;85;21030;-73
2021/11/06 10:48:30;;;;;;;32.17;25.93;;;;;;;21.99;78.20;100889.36;1632146;86;21667;-67
2021/11/06 10:51:11;;;;;;;36.73;26.83;;;;;;;20.96;86.76;100897.41;1660488;84;21049;-73
2021/11/06 10:53:44;;;;;;;37.90;28.97;;;;;;;21.01;91.70;100906.78;1649827;84;21177;-73
2021/11/06 10:56:38;;;;;;;40.50;28.87;;;;;;;20.94;94.59;100910.61;1658235;84;22413;-69
2021/11/06 10:59:09;;;;;;;38.47;27.83;;;;;;;20.97;93.93;100912.27;1659933;84;21134;-72
2021/11/06 11:01:39;;;;;;;42.73;30.47;;;;;;;20.57;99.39;100917.05;1650077;84;21000;-69
2021/11/06 11:04:09;;;;;;;40.10;29.60;;;;;;;20.65;100.00;100915.36;1670232;83;21080;-69
2021/11/06 11:06:40;;;;;;;39.40;29.27;;;;;;;20.48;100.00;100914.42;1687206;83;22457;-68
2021/11/06 11:09:13;;;;;;;38.40;27.37;;;;;;;20.43;100.00;100912.20;1686630;83;27712;-70
2021/11/06 11:11:41;;;;;;;39.93;30.73;;;;;;;20.18;100.00;100911.39;1688586;83;21660;-68